Latest Weather Observations for Wilsons Promontory

IDV60801

Issued at 7:33 pm EST Thursday 17 August 2017 (issued every 30 minutes, with the page automatically refreshed every 10 minutes)

About weather observations | Map of weather stations | Latest weather observations for VIC | Other Formats
Station Details ID: 085096 Name: WILSONS PROMONTORY LIGHTHOUSE Lat: -39.13 Lon: 146.42 Height: 95.0 m
Data from the previous 72 hours. | See also: Recent months at Wilsons Promontory
Date/Time
EST
Temp
°C
App
Temp
°C
Dew
Point
°C
Rel
Hum
%
Delta-T
°C
Wind Press
QNH
hPa
Press
MSL
hPa
Rain since
9am
mm
Dir  Spd
km/h
Gust
km/h
Spd
kts
Gust
kts
17/07:30pm 10.7 2.9 5.0 68 2.6 W 35 76 19 41 998.8 - 8.0
17/07:27pm 10.8 2.2 4.9 67 2.7 W 39 80 21 43 998.9 - 8.0
17/07:21pm 10.9 -1.8 5.0 67 2.7 W 61 80 33 43 998.3 - 8.0
17/07:12pm 10.7 2.3 5.7 71 2.3 W 39 72 21 39 998.5 - 8.0
17/07:00pm 10.6 3.9 5.8 72 2.2 W 30 50 16 27 998.8 - 8.0
17/06:30pm 10.6 -0.3 5.4 70 2.4 W 52 72 28 39 998.3 - 8.0
17/06:00pm 10.3 -0.7 4.9 69 2.5 W 52 76 28 41 997.8 997.8 8.0
17/05:30pm 10.0 -0.9 5.4 73 2.1 W 52 78 28 42 997.6 - 8.0
17/05:00pm 8.7 -0.1 5.6 81 1.4 W 41 59 22 32 997.7 - 8.0
17/04:30pm 9.0 -2.4 5.0 76 1.8 W 54 87 29 47 998.1 - 7.2
17/04:22pm 9.9 -0.7 5.1 72 2.2 W 50 87 27 47 996.6 - 7.2
17/04:19pm 10.8 1.2 6.4 74 2.1 W 46 67 25 36 997.1 - 7.2
17/04:08pm 10.3 4.2 6.5 77 1.8 W 28 46 15 25 997.6 - 7.2
17/04:00pm 10.0 5.5 6.3 78 1.7 SW 19 33 10 18 997.7 - 7.2
17/03:44pm 9.7 3.5 6.2 79 1.6 W 28 50 15 27 997.3 - 7.2
17/03:30pm 9.5 2.9 6.0 79 1.6 W 30 43 16 23 997.8 - 7.2
17/03:01pm 9.0 1.0 5.9 81 1.4 W 37 56 20 30 998.0 - 7.2
17/03:00pm 9.0 0.7 5.9 81 1.4 W 39 56 21 30 998.0 998.0 7.2
17/02:43pm 8.6 -0.8 5.4 80 1.4 W 44 82 24 44 997.5 - 7.2
17/02:31pm 8.9 -5.4 5.6 80 1.5 W 70 89 38 48 996.9 - 6.8
17/02:30pm 8.9 -0.8 5.6 80 1.5 W 46 89 25 48 997.1 - 6.6
17/02:00pm 8.8 -1.6 6.2 84 1.2 W 50 85 27 46 996.8 - 6.4
17/01:43pm 8.8 -2.9 6.4 85 1.1 W 57 76 31 41 997.1 - 5.8
17/01:40pm 8.7 -4.1 6.3 85 1.1 W 63 76 34 41 996.9 - 5.4
17/01:32pm 8.3 -0.4 6.1 86 1.0 W 41 61 22 33 997.4 - 5.2
17/01:30pm 8.2 -0.5 6.0 86 1.0 W 41 57 22 31 997.4 - 5.2
17/01:18pm 7.8 -0.7 5.3 84 1.1 W 39 63 21 34 997.5 - 4.8
17/01:06pm 7.7 -4.8 4.3 79 1.5 W 59 82 32 44 996.5 - 4.4
17/01:00pm 9.9 1.7 6.4 79 1.6 WNW 39 74 21 40 996.1 - 3.4
17/12:30pm 9.9 3.9 7.2 83 1.3 W 28 65 15 35 996.8 - 3.4
17/12:00pm 9.0 6.9 6.8 86 1.0 NE 7 17 4 9 997.4 997.4 3.0
17/11:30am 8.5 2.7 6.1 85 1.1 NNW 26 50 14 27 997.8 - 2.4
17/11:18am 8.4 1.2 6.0 85 1.1 NNW 33 54 18 29 998.0 - 2.0
17/11:17am 8.4 0.5 6.0 85 1.1 NW 37 54 20 29 998.0 - 2.0
17/11:00am 9.1 5.1 6.7 85 1.1 NW 17 30 9 16 998.5 - 1.2
17/10:30am 8.7 2.4 5.8 82 1.3 WNW 28 56 15 30 998.3 - 1.0
17/10:17am 8.7 0.3 5.4 80 1.5 WNW 39 65 21 35 998.2 - 1.0
17/10:00am 9.6 -0.8 6.1 79 1.6 W 50 72 27 39 997.1 - 0.2
17/09:59am 10.0 0.5 6.5 79 1.6 WSW 46 65 25 35 997.5 - 0.2
17/09:34am 10.7 4.8 7.4 80 1.6 WNW 28 52 15 28 997.9 - 0.0
17/09:30am 10.7 5.9 7.4 80 1.6 WNW 22 52 12 28 997.6 - 0.0
17/09:05am 10.5 3.8 7.4 81 1.5 WSW 32 52 17 28 998.1 - 0.0
17/09:00am 10.5 5.3 7.4 81 1.5 WNW 24 61 13 33 998.2 998.2 23.8
17/08:52am 10.4 4.5 7.3 81 1.5 WNW 28 61 15 33 997.9 - 23.8
17/08:38am 9.7 5.3 6.6 81 1.5 NNW 19 44 10 24 998.2 - 23.8
17/08:30am 8.8 0.4 5.4 79 1.5 WNW 39 67 21 36 998.1 - 23.8
17/08:00am 11.2 3.5 6.9 75 2.1 W 37 65 20 35 998.1 - 18.8
17/07:30am 11.1 3.3 6.6 74 2.1 W 37 63 20 34 997.7 - 18.8
17/07:00am 11.1 4.3 6.8 75 2.0 WNW 32 74 17 40 997.3 - 18.8
17/06:55am 11.1 5.0 6.8 75 2.0 WNW 28 70 15 38 997.3 - 18.8
17/06:54am 11.1 5.8 6.8 75 2.0 NW 24 70 13 38 997.5 - 18.8
17/06:30am 10.9 1.4 6.8 76 1.9 W 46 67 25 36 997.0 - 18.8
17/06:00am 11.2 1.7 6.9 75 2.1 W 46 82 25 44 997.3 997.3 18.6
17/05:53am 11.3 -0.6 7.0 75 2.1 W 59 82 32 44 996.5 - 18.6
17/05:30am 11.3 3.7 7.4 77 1.9 W 37 72 20 39 996.9 - 18.6
17/05:00am 11.4 2.6 7.3 76 2.0 W 43 76 23 41 996.4 - 18.6
17/04:30am 11.3 2.3 7.4 77 1.9 W 44 67 24 36 996.3 - 18.6
17/04:00am 11.1 3.1 7.6 79 1.7 W 39 76 21 41 995.9 - 18.6
17/03:30am 10.7 3.1 7.6 81 1.5 W 37 72 20 39 996.4 - 18.6
17/03:00am 10.8 3.2 7.5 80 1.6 WNW 37 74 20 40 996.5 996.5 18.4
17/02:30am 10.8 2.8 7.3 79 1.7 W 39 70 21 38 997.1 - 18.4
17/02:00am 9.9 3.0 6.6 80 1.5 WNW 32 69 17 37 997.3 - 18.4
17/01:37am 9.5 -1.2 6.4 81 1.4 WNW 52 78 28 42 997.0 - 18.4
17/01:36am 9.6 2.7 6.5 81 1.4 W 32 69 17 37 997.3 - 18.4
17/01:30am 9.7 4.4 6.6 81 1.5 W 24 57 13 31 997.5 - 18.4
17/01:13am 9.8 -0.3 7.2 84 1.2 W 50 76 27 41 997.8 - 17.8
17/01:02am 10.5 4.6 7.4 81 1.5 W 28 57 15 31 997.7 - 15.2
17/01:00am 10.6 4.7 7.5 81 1.5 W 28 44 15 24 997.5 - 14.8
17/12:30am 10.7 5.5 7.2 79 1.7 NNW 24 59 13 32 997.1 - 13.4
17/12:10am 10.9 4.8 6.8 76 1.9 W 28 48 15 26 997.5 - 13.0
17/12:00am 11.1 7.6 7.0 76 2.0 NW 15 28 8 15 997.9 997.9 12.8
 
Date/Time
EST
Temp
°C
App
Temp
°C
Dew
Point
°C
Rel
Hum
%
Delta-T
°C
Wind Press
QNH
hPa
Press
MSL
hPa
Rain since
9am
mm
Dir  Spd
km/h
Gust
km/h
Spd
kts
Gust
kts
16/11:30pm 11.0 7.5 7.1 77 1.9 N 15 32 8 17 998.1 - 12.8
16/11:00pm 11.0 8.0 7.5 79 1.7 NW 13 33 7 18 998.3 - 12.8
16/10:30pm 10.8 6.1 7.7 81 1.5 WNW 22 46 12 25 998.4 - 12.8
16/10:00pm 11.0 0.1 7.3 78 1.8 W 54 85 29 46 997.6 - 12.0
16/09:30pm 11.3 3.2 8.5 83 1.4 W 41 69 22 37 997.8 - 11.0
16/09:09pm 9.5 1.8 7.1 85 1.1 W 37 56 20 30 998.2 - 10.6
16/09:00pm 9.0 1.9 6.4 84 1.2 W 33 89 18 48 998.4 998.4 10.2
16/08:57pm 8.9 2.4 6.3 84 1.2 WSW 30 96 16 52 998.6 - 10.0
16/08:49pm 9.8 -0.5 6.7 81 1.5 W 50 96 27 52 997.3 - 9.0
16/08:48pm 10.6 3.0 7.7 82 1.4 W 37 72 20 39 998.1 - 8.6
16/08:37pm 9.7 6.5 6.8 82 1.4 ENE 13 56 7 30 998.2 - 8.0
16/08:34pm 9.7 1.9 6.8 82 1.4 W 37 57 20 31 998.0 - 8.0
16/08:30pm 9.6 0.7 6.7 82 1.4 W 43 57 23 31 997.9 - 8.0
16/08:16pm 8.5 -0.9 5.4 81 1.4 W 44 87 24 47 998.2 - 8.0
16/08:07pm 8.9 -4.6 5.1 77 1.7 W 65 87 35 47 997.7 - 6.6
16/08:06pm 9.6 0.9 6.0 78 1.7 W 41 80 22 43 997.9 - 6.2
16/08:00pm 9.9 2.7 5.7 75 1.9 W 33 59 18 32 998.0 - 5.4
16/07:30pm 12.2 0.9 5.6 64 3.1 W 54 82 29 44 997.2 - 5.0
16/07:25pm 12.2 0.6 6.0 66 2.9 W 56 80 30 43 997.0 - 5.0
16/07:00pm 12.2 5.8 6.9 70 2.6 W 30 61 16 33 997.4 - 5.0
16/06:30pm 11.8 2.8 6.3 69 2.6 W 43 76 23 41 996.9 - 5.0
16/06:00pm 11.3 0.2 6.2 71 2.4 W 54 83 29 45 996.5 996.5 5.0
16/05:48pm 12.1 0.3 5.5 64 3.1 W 57 80 31 43 995.8 - 5.0
16/05:31pm 11.6 3.8 6.7 72 2.3 W 37 63 20 34 996.3 - 5.0
16/05:30pm 11.6 4.2 6.9 73 2.3 W 35 65 19 35 996.4 - 5.0
16/05:28pm 11.5 4.1 6.8 73 2.2 W 35 65 19 35 996.3 - 5.0
16/05:00pm 10.2 -1.5 6.0 75 2.0 W 57 83 31 45 995.6 - 5.0
16/04:30pm 12.0 0.3 6.1 67 2.8 W 57 85 31 46 995.2 - 5.0
16/04:00pm 11.3 -0.6 7.0 75 2.1 W 59 95 32 51 994.2 - 5.0
16/03:30pm 12.2 2.7 6.5 68 2.7 W 46 83 25 45 994.2 - 4.8
16/03:08pm 12.2 3.0 6.3 67 2.8 W 44 89 24 48 994.3 - 4.8
16/03:00pm 12.3 -0.6 6.1 66 3.0 W 63 95 34 51 993.8 993.9 4.8
16/02:30pm 11.9 0.5 6.6 70 2.5 W 56 95 30 51 993.3 - 4.8
16/02:00pm 11.7 1.6 7.2 74 2.2 W 50 85 27 46 993.0 - 4.8
16/01:44pm 10.3 0.0 6.3 76 1.9 W 50 106 27 57 992.9 - 4.8
16/01:37pm 10.4 -3.9 5.6 72 2.2 W 70 130 38 70 991.8 - 4.8
16/01:34pm 10.9 -8.0 6.3 73 2.2 W 95 130 51 70 991.3 - 4.6
16/01:33pm 11.1 -1.3 6.5 73 2.2 W 61 122 33 66 991.1 - 4.6
16/01:30pm 11.3 -0.3 6.8 74 2.1 W 57 96 31 52 992.4 - 4.6
16/01:00pm 10.9 1.3 8.0 82 1.4 W 48 83 26 45 992.3 - 4.6
16/12:30pm 11.0 2.2 8.0 82 1.5 W 44 83 24 45 992.4 - 3.2
16/12:00pm 10.8 0.7 7.5 80 1.6 W 50 78 27 42 992.7 992.8 2.4
16/11:30am 11.5 1.4 7.4 76 2.0 W 50 85 27 46 991.7 - 2.0
16/11:10am 11.3 3.7 7.6 78 1.8 W 37 102 20 55 992.5 - 2.0
16/11:00am 10.7 -1.5 7.4 80 1.6 W 61 96 33 52 991.8 - 2.0
16/10:55am 10.5 -0.4 7.4 81 1.5 W 54 100 29 54 991.9 - 2.0
16/10:54am 10.5 0.0 7.4 81 1.5 W 52 100 28 54 991.8 - 2.0
16/10:50am 10.3 -4.8 7.2 81 1.5 W 76 100 41 54 991.1 - 2.0
16/10:30am 11.0 0.6 7.9 81 1.5 W 52 95 28 51 991.8 - 1.2
16/10:21am 10.8 0.0 7.7 81 1.5 W 54 95 29 51 991.1 - 1.2
16/10:00am 10.8 1.9 7.7 81 1.5 W 44 76 24 41 991.4 - 0.4
16/09:48am 10.3 1.3 7.2 81 1.5 W 44 102 24 55 991.6 - 0.4
16/09:30am 10.9 -2.1 7.0 77 1.9 W 65 100 35 54 990.7 - 0.2
16/09:28am 11.2 -2.7 7.3 77 1.9 W 70 106 38 57 990.3 - 0.2
16/09:00am 10.4 0.2 7.1 80 1.6 W 50 96 27 52 990.5 990.6 21.0
16/08:30am 10.9 0.3 7.0 77 1.9 W 52 100 28 54 989.3 - 20.6
16/08:29am 10.9 0.3 7.0 77 1.9 W 52 100 28 54 989.1 - 20.6
16/08:00am 11.8 4.4 6.7 71 2.4 W 35 78 19 42 989.8 - 19.8
16/07:30am 11.8 5.0 6.7 71 2.4 WNW 32 74 17 40 990.1 - 19.8
16/07:00am 11.5 6.6 6.8 73 2.2 WSW 22 54 12 29 990.1 - 19.8
16/06:30am 11.2 5.9 6.7 74 2.1 W 24 50 13 27 989.7 - 19.8
16/06:01am 11.5 5.1 6.8 73 2.2 W 30 82 16 44 989.4 - 19.8
16/06:00am 11.5 5.8 6.8 73 2.3 W 26 82 14 44 989.7 989.7 19.8
16/05:35am 11.4 5.4 7.1 75 2.1 WNW 28 69 15 37 989.3 - 19.8
16/05:30am 11.4 6.2 7.1 75 2.1 W 24 57 13 31 989.2 - 19.8
16/05:23am 11.6 5.7 7.3 75 2.1 WNW 28 57 15 31 989.2 - 19.8
16/05:00am 11.7 7.9 7.6 76 2.0 W 17 35 9 19 989.8 - 19.8
16/04:31am 12.0 5.4 7.9 76 2.0 W 32 78 17 42 989.7 - 19.8
16/04:30am 12.0 5.8 7.9 76 2.0 W 30 78 16 42 989.6 - 19.8
16/04:13am 12.0 6.2 7.9 76 2.0 WNW 28 61 15 33 989.9 - 19.8
16/04:00am 11.6 7.8 7.5 76 2.0 WNW 17 33 9 18 990.0 - 19.8
16/03:31am 11.6 5.7 7.7 77 1.9 WNW 28 57 15 31 990.5 - 19.8
16/03:30am 11.6 6.1 7.7 77 1.9 WNW 26 57 14 31 990.4 - 19.8
16/03:00am 11.6 8.8 8.5 81 1.6 WNW 13 37 7 20 991.1 991.2 19.8
16/02:30am 11.9 7.4 8.4 79 1.7 WNW 22 44 12 24 991.8 - 19.8
16/02:09am 12.1 6.5 8.6 79 1.7 WNW 28 50 15 27 991.7 - 19.8
16/02:00am 12.0 8.5 8.8 81 1.6 WNW 17 33 9 18 991.8 - 19.8
16/01:30am 11.4 7.0 8.8 84 1.3 WNW 22 50 12 27 992.3 - 19.8
16/01:00am 11.0 5.5 9.1 88 1.0 W 28 46 15 25 992.8 - 19.8
16/12:30am 10.8 4.9 9.1 89 0.8 W 30 54 16 29 993.6 - 19.6
16/12:04am 10.7 3.5 9.0 89 0.8 W 37 59 20 32 993.5 - 18.8
16/12:00am 10.7 3.5 9.0 89 0.9 W 37 54 20 29 993.8 993.9 18.6
 
Date/Time
EST
Temp
°C
App
Temp
°C
Dew
Point
°C
Rel
Hum
%
Delta-T
°C
Wind Press
QNH
hPa
Press
MSL
hPa
Rain since
9am
mm
Dir  Spd
km/h
Gust
km/h
Spd
kts
Gust
kts
15/11:30pm 11.3 3.8 9.6 89 0.9 W 39 59 21 32 993.6 - 15.4
15/11:01pm 10.7 2.2 8.6 87 1.0 W 43 61 23 33 994.0 - 12.4
15/11:00pm 10.6 2.1 8.5 87 1.0 W 43 59 23 32 994.1 - 12.4
15/10:30pm 10.8 0.6 8.4 85 1.2 W 52 83 28 45 994.0 - 8.2
15/10:27pm 11.3 2.7 8.9 85 1.2 W 44 83 24 45 993.7 - 6.2
15/10:25pm 11.4 3.0 8.8 84 1.3 W 43 63 23 34 994.0 - 6.2
15/10:20pm 12.5 5.5 9.9 84 1.3 W 37 59 20 32 994.8 - 6.0
15/10:17pm 13.8 6.4 11.3 85 1.3 WNW 41 59 22 32 994.2 - 6.0
15/10:00pm 13.7 11.6 11.2 85 1.3 NW 13 30 7 16 994.9 - 6.0
15/09:31pm 13.9 7.6 11.2 84 1.4 W 35 54 19 29 995.2 - 6.0
15/09:30pm 13.9 7.3 11.2 84 1.4 W 37 54 20 29 995.0 - 6.0
15/09:00pm 13.9 7.4 11.6 86 1.2 WNW 37 70 20 38 994.9 994.9 5.8
15/08:30pm 13.8 9.0 11.5 86 1.2 WNW 28 65 15 35 995.5 - 5.8
15/08:09pm 13.8 9.0 11.7 87 1.1 NW 28 59 15 32 995.5 - 5.8
15/08:00pm 13.8 10.2 11.7 87 1.1 NW 22 56 12 30 996.0 - 5.8
15/07:30pm 14.1 8.5 12.1 88 1.1 NW 33 63 18 34 995.6 - 5.6
15/07:00pm 14.0 8.3 11.9 87 1.1 NW 33 69 18 37 995.4 - 4.6
15/06:30pm 14.2 8.7 11.9 86 1.2 NW 32 57 17 31 996.0 - 3.0
15/06:06pm 14.1 7.3 11.8 86 1.2 NW 39 80 21 43 995.6 - 3.0
15/06:00pm 14.0 7.4 11.5 85 1.4 NW 37 61 20 33 995.8 995.8 2.8
15/05:30pm 14.1 8.5 11.6 85 1.3 NNW 32 61 17 33 996.0 - 2.6
15/05:08pm 14.1 9.2 11.4 84 1.4 NNW 28 56 15 30 995.8 - 2.4
15/05:00pm 14.0 9.8 11.2 83 1.5 NNW 24 48 13 26 996.1 - 2.4
15/04:33pm 14.1 8.9 10.3 78 2.0 NNW 28 46 15 25 996.0 - 1.6
15/04:30pm 14.3 9.5 10.3 77 2.1 NNW 26 46 14 25 996.4 - 1.6
15/04:00pm 15.8 10.6 10.3 70 2.9 NNW 28 59 15 32 996.5 - 1.4
15/03:30pm 16.0 9.9 10.3 69 3.0 NNW 33 61 18 33 996.6 - 1.4
15/03:00pm 15.9 10.4 10.4 70 2.9 NNW 30 57 16 31 996.9 996.9 1.4
15/02:30pm 15.8 10.3 10.6 71 2.8 NW 30 57 16 31 997.1 - 1.4
15/02:00pm 15.7 9.6 10.5 71 2.8 NNW 33 65 18 35 997.5 - 1.4
15/01:42pm 15.8 8.8 10.1 69 3.0 NW 37 63 20 34 997.2 - 1.4
15/01:40pm 16.0 12.9 10.3 69 3.0 N 17 54 9 29 997.5 - 1.4
15/01:30pm 16.2 9.4 10.5 69 3.0 NNW 37 70 20 38 997.4 - 1.4
15/01:00pm 15.6 9.2 10.6 72 2.7 NNW 35 80 19 43 997.9 - 1.4
15/12:30pm 16.2 10.1 10.5 69 3.0 NNW 33 67 18 36 998.6 - 1.2
15/12:00pm 16.4 9.0 9.8 65 3.5 NNW 39 74 21 40 999.5 999.6 1.0
15/11:46am 16.4 11.1 10.0 66 3.4 N 28 59 15 32 999.8 - 1.0
15/11:30am 16.0 10.8 10.1 68 3.1 N 28 44 15 24 1000.1 - 1.0
15/11:00am 15.5 9.4 10.5 72 2.7 NNW 33 52 18 28 1001.2 - 1.0
15/10:30am 14.8 8.6 9.4 70 2.8 NNW 32 63 17 34 1002.2 - 0.0
15/10:00am 16.4 10.4 8.6 60 4.0 NNW 30 65 16 35 1003.1 - 0.0
15/09:35am 16.1 10.5 8.8 62 3.8 NNW 28 54 15 29 1002.8 - 0.0
15/09:30am 16.0 10.8 8.7 62 3.7 NNW 26 54 14 29 1003.0 - 0.0
15/09:28am 15.9 10.3 8.9 63 3.6 NW 28 54 15 29 1002.8 - 0.0
15/09:00am 13.0 8.5 7.0 67 2.9 N 20 30 11 16 1004.1 1004.2 0.0
15/08:30am 12.4 6.9 7.7 73 2.3 NNE 26 32 14 17 1004.6 - 0.0
15/08:00am 11.6 5.8 7.9 78 1.8 NNE 28 33 15 18 1004.4 - 0.0
15/07:30am 12.2 7.2 7.9 75 2.1 NNE 24 32 13 17 1005.3 - 0.0
15/07:00am 11.8 6.6 7.3 74 2.2 NNE 24 32 13 17 1005.8 - 0.0
15/06:30am 12.0 6.8 7.3 73 2.3 N 24 33 13 18 1006.0 - 0.0
15/06:00am 11.4 6.0 8.1 80 1.6 NNE 26 33 14 18 1006.7 1006.7 0.0
15/05:30am 10.8 5.1 8.4 85 1.2 NNE 28 33 15 18 1007.0 - 0.0
15/05:00am 10.5 5.5 8.1 85 1.2 NNE 24 30 13 16 1007.3 - 0.0
15/04:30am 10.9 5.8 7.6 80 1.6 NNE 24 30 13 16 1007.8 - 0.0
15/04:00am 11.5 7.9 6.6 72 2.3 N 15 26 8 14 1008.1 - 0.0
15/03:30am 13.8 9.3 7.1 64 3.3 NNW 20 30 11 16 1008.6 - 0.0
15/03:00am 13.0 9.0 9.1 77 2.0 NNW 20 28 11 15 1009.3 1009.4 0.0
15/02:30am 11.2 7.4 7.7 79 1.7 NE 17 20 9 11 1009.6 - 0.0
15/02:00am 11.1 7.0 8.0 81 1.5 NE 19 20 10 11 1009.9 - 0.0
15/01:30am 10.8 6.9 7.1 78 1.8 NNE 17 24 9 13 1010.4 - 0.0
15/01:00am 11.7 9.6 6.8 72 2.3 N 7 15 4 8 1010.8 - 0.0
15/12:30am 12.0 7.5 8.7 80 1.6 WNW 22 28 12 15 1010.9 - 0.0
15/12:00am 11.8 7.4 8.8 82 1.5 WNW 22 28 12 15 1011.3 1011.4 0.0
 
Date/Time
EST
Temp
°C
App
Temp
°C
Dew
Point
°C
Rel
Hum
%
Delta-T
°C
Wind Press
QNH
hPa
Press
MSL
hPa
Rain since
9am
mm
Dir  Spd
km/h
Gust
km/h
Spd
kts
Gust
kts
14/11:30pm 11.8 8.0 9.0 83 1.4 WNW 19 24 10 13 1011.8 - 0.0
14/11:00pm 12.0 8.2 9.2 83 1.4 WNW 19 26 10 14 1012.2 - 0.0
14/10:30pm 11.8 7.8 9.2 84 1.3 WNW 20 26 11 14 1012.4 - 0.0
14/10:00pm 11.7 7.4 9.3 85 1.2 WNW 22 26 12 14 1012.4 - 0.0
14/09:30pm 11.6 7.8 9.2 85 1.2 WNW 19 24 10 13 1012.6 - 0.0
14/09:00pm 11.8 7.8 9.2 84 1.3 WNW 20 26 11 14 1012.6 1012.7 0.0
14/08:30pm 12.0 8.3 9.4 84 1.3 WNW 19 26 10 14 1012.5 - 0.0
14/08:00pm 12.0 9.4 9.4 84 1.3 WNW 13 19 7 10 1012.3 - 0.0

Other Formats:

Comma delimited format used in spreadsheet applications
http://www.bom.gov.au/fwo/IDV60801/IDV60801.94893.axf

JavaScript Object Notation format (JSON) in row-major order
http://www.bom.gov.au/fwo/IDV60801/IDV60801.94893.json